Terminal Aerodrome Forecast
Issued by NWS Milwaukee/Sullivan, WI

Home | Current Version | Previous Version | Text Only | Print | Product List | Glossary On
Versions: 1 2 3 4 5 6 7 8 9 10 11 12 13 14 15 16 17 18 19 20 21 22 23 24 25 26 27 28 29 30 31
000
FTUS43 KMKX 301741
TAFMKE
TAF
KMKE 301741Z 3018/0124 07014KT 6SM -RA OVC040
     FM301900 06015KT 3SM RA OVC035
     FM302200 04016KT 2SM RA OVC030
     FM010100 04014KT 3SM RA OVC015
     FM010300 04013KT 5SM RA OVC008
     FM010600 04014KT P6SM VCSH OVC008
     FM011000 03013KT P6SM VCSH OVC005
     FM011700 03013KT P6SM VCSH OVC008=

USA.gov is the U.S. government's official web portal to all federal, state and local government web resources and services.